Time;durP1;ratioP1;P1;durP2;ratioP2;P2;SDS_P1;SDS_P2;PMS_P1;PMS_P2;Temp;Humidity;BMP_temperature;BMP_pressure;BME280_temperature;BME280_humidity;BME280_pressure;Samples;Min_cycle;Max_cycle;Signal;HPM_P1;HPM_P2
2023/10/02 00:03:41;;;;;;;11.95;4.60;;;16.80;99.90;;;;;;5023925;28;20033;-72
2023/10/02 00:06:11;;;;;;;13.98;4.97;;;16.80;99.90;;;;;;5023854;28;20583;-72
2023/10/02 00:08:42;;;;;;;10.40;4.00;;;16.80;99.90;;;;;;5023536;28;20491;-72
2023/10/02 00:11:36;;;;;;;11.93;4.57;;;16.70;99.90;;;;;;5022296;28;20053;-72
2023/10/02 00:14:21;;;;;;;10.02;3.60;;;16.70;99.90;;;;;;5022812;28;20041;-72
2023/10/02 00:17:14;;;;;;;12.10;5.00;;;16.70;99.90;;;;;;5005738;28;20037;-72
2023/10/02 00:19:49;;;;;;;13.30;4.60;;;16.70;99.90;;;;;;5040457;28;20048;-72
2023/10/02 00:22:42;;;;;;;13.87;5.80;;;16.70;99.90;;;;;;5023657;28;20057;-72
2023/10/02 00:25:10;;;;;;;13.15;4.60;;;16.70;99.90;;;;;;5022646;28;20519;-72
2023/10/02 00:27:37;;;;;;;11.73;4.20;;;16.60;99.90;;;;;;5023039;28;20042;-72
2023/10/02 00:30:13;;;;;;;11.68;4.57;;;16.70;99.90;;;;;;5023897;28;20037;-72
2023/10/02 00:32:41;;;;;;;9.75;3.40;;;16.60;99.90;;;;;;5006329;28;20188;-72
2023/10/02 00:35:10;;;;;;;11.15;3.67;;;16.60;99.90;;;;;;5024054;28;20049;-72
2023/10/02 00:37:52;;;;;;;8.68;3.65;;;16.60;99.90;;;;;;5023941;28;20438;-72
2023/10/02 00:40:30;;;;;;;9.88;3.80;;;16.60;99.90;;;;;;5021522;28;20113;-72
2023/10/02 00:42:57;;;;;;;10.82;3.78;;;16.60;99.90;;;;;;5022230;28;20131;-72
2023/10/02 00:45:24;;;;;;;9.40;3.63;;;16.60;99.90;;;;;;5006647;28;20128;-72
2023/10/02 00:47:52;;;;;;;10.00;4.07;;;16.60;99.90;;;;;;5022363;28;20081;-72
2023/10/02 00:50:20;;;;;;;10.73;4.30;;;16.60;99.90;;;;;;5036645;28;20176;-72
2023/10/02 00:53:04;;;;;;;13.52;4.47;;;16.60;99.90;;;;;;5019841;28;20164;-72
2023/10/02 00:55:32;;;;;;;11.65;3.90;;;16.60;99.90;;;;;;5022036;28;20130;-72
2023/10/02 00:58:03;;;;;;;10.57;3.83;;;16.60;99.90;;;;;;5021612;28;20227;-72
2023/10/02 01:00:36;;;;;;;12.88;4.93;;;16.60;99.90;;;;;;5006971;28;20132;-72
2023/10/02 01:03:05;;;;;;;11.95;4.72;;;16.70;99.90;;;;;;5020984;28;20045;-72
2023/10/02 01:05:47;;;;;;;12.40;5.05;;;16.70;99.90;;;;;;5022685;28;20041;-71
2023/10/02 01:08:24;;;;;;;12.30;4.88;;;16.70;99.90;;;;;;5039053;28;20042;-72
2023/10/02 01:10:58;;;;;;;12.77;4.85;;;16.70;99.90;;;;;;5021350;28;20061;-72
2023/10/02 01:13:28;;;;;;;11.65;4.68;;;16.70;99.90;;;;;;5022753;28;20038;-72
2023/10/02 01:16:00;;;;;;;12.98;5.10;;;16.70;99.90;;;;;;5007122;28;20798;-72
2023/10/02 01:18:27;;;;;;;16.98;5.03;;;16.70;99.90;;;;;;5022057;28;20046;-72
2023/10/02 01:20:57;;;;;;;13.60;5.25;;;16.70;99.90;;;;;;5001024;28;20504;-72
2023/10/02 01:23:33;;;;;;;15.43;5.32;;;16.80;99.90;;;;;;5023271;28;20047;-72
2023/10/02 01:26:00;;;;;;;9.88;4.55;;;16.70;99.90;;;;;;5005496;28;20041;-72
2023/10/02 01:28:51;;;;;;;15.73;5.13;;;16.70;99.90;;;;;;5026735;28;20041;-72
2023/10/02 01:31:35;;;;;;;13.82;5.43;;;16.70;99.90;;;;;;5026638;28;20042;-72
2023/10/02 01:34:02;;;;;;;13.98;5.63;;;16.70;99.90;;;;;;5025749;28;20629;-72
2023/10/02 01:36:32;;;;;;;16.35;5.43;;;16.70;99.90;;;;;;5023800;28;20061;-72
2023/10/02 01:39:10;;;;;;;15.40;5.45;;;16.80;99.90;;;;;;5039747;28;20049;-72
2023/10/02 01:41:40;;;;;;;12.38;4.50;;;16.80;99.90;;;;;;5025518;28;20111;-72
2023/10/02 01:44:10;;;;;;;17.27;5.45;;;16.80;99.90;;;;;;5040100;28;20045;-72
2023/10/02 01:46:38;;;;;;;10.45;4.65;;;16.80;99.90;;;;;;5026080;28;20029;-72
2023/10/02 01:49:24;;;;;;;11.52;4.65;;;16.80;99.90;;;;;;5024843;28;20041;-72
2023/10/02 01:51:50;;;;;;;15.65;5.10;;;16.80;99.90;;;;;;5026941;28;20208;-72
2023/10/02 01:54:16;;;;;;;13.93;4.80;;;16.80;99.90;;;;;;5041620;28;20072;-72
2023/10/02 01:56:45;;;;;;;12.18;4.20;;;16.80;99.90;;;;;;5025887;28;20124;-72
2023/10/02 01:59:14;;;;;;;15.05;5.45;;;16.80;99.90;;;;;;5008482;28;20033;-72
2023/10/02 02:01:51;;;;;;;16.52;5.28;;;16.80;99.90;;;;;;5026657;28;20128;-72
2023/10/02 02:04:18;;;;;;;12.60;5.13;;;16.80;99.90;;;;;;5023604;28;20095;-72
2023/10/02 02:06:55;;;;;;;12.57;5.07;;;16.80;99.90;;;;;;5026971;28;20578;-72
2023/10/02 02:09:30;;;;;;;14.32;5.75;;;16.80;99.90;;;;;;5009999;28;20030;-72
2023/10/02 02:12:06;;;;;;;;;;;16.80;99.90;;;;;;5026544;28;20037;-72
2023/10/02 02:14:32;;;;;;;12.60;5.10;;;16.80;99.90;;;;;;5009431;28;20469;-73
2023/10/02 02:16:57;;;;;;;13.73;5.10;;;16.80;99.90;;;;;;5006928;28;20038;-72
2023/10/02 02:19:23;;;;;;;15.18;4.95;;;16.80;99.90;;;;;;5025329;28;20049;-72
2023/10/02 02:21:49;;;;;;;11.65;4.93;;;16.80;99.90;;;;;;5025116;28;20128;-72
2023/10/02 02:24:15;;;;;;;14.40;5.40;;;16.80;99.90;;;;;;5024941;28;20037;-72
2023/10/02 02:26:40;;;;;;;13.85;5.03;;;16.80;99.90;;;;;;5023979;28;20045;-72
2023/10/02 02:29:23;;;;;;;12.85;5.18;;;16.90;99.90;;;;;;5024701;28;20128;-72
2023/10/02 02:31:56;;;;;;;17.00;5.50;;;16.80;99.90;;;;;;5036605;28;20044;-72
2023/10/02 02:34:23;;;;;;;16.10;6.03;;;16.80;99.90;;;;;;5024896;28;20041;-72
2023/10/02 02:36:50;;;;;;;13.57;5.45;;;16.80;99.90;;;;;;5006350;28;20037;-72
2023/10/02 02:39:18;;;;;;;9.68;4.25;;;16.80;99.90;;;;;;5006613;28;20537;-72
2023/10/02 02:41:45;;;;;;;12.98;4.80;;;16.80;99.90;;;;;;5024990;28;20361;-72
2023/10/02 02:44:56;;;;;;;14.27;4.60;;;16.80;99.90;;;;;;5008144;28;20037;-72
2023/10/02 02:46:57;;;;;;;15.27;4.60;;;16.90;99.90;;;;;;5014071;28;20041;-72
2023/10/02 02:49:25;;;;;;;14.52;5.20;;;16.80;99.90;;;;;;5025088;28;20120;-72
2023/10/02 02:51:53;;;;;;;12.82;4.72;;;16.80;99.90;;;;;;5026071;28;20159;-72
2023/10/02 02:54:18;;;;;;;15.93;6.15;;;16.80;99.90;;;;;;5025897;28;20510;-72
2023/10/02 02:56:45;;;;;;;12.40;5.32;;;16.70;99.90;;;;;;5025254;28;20075;-72
2023/10/02 02:59:10;;;;;;;12.80;5.10;;;16.80;99.90;;;;;;5023900;28;20117;-72
2023/10/02 03:01:36;;;;;;;12.82;4.70;;;16.70;99.90;;;;;;5024302;28;22199;-72
2023/10/02 03:04:16;;;;;;;16.55;5.55;;;16.80;99.90;;;;;;5024718;28;20037;-72
2023/10/02 03:06:42;;;;;;;15.05;5.40;;;16.70;99.90;;;;;;5040728;28;20564;-72
2023/10/02 03:09:08;;;;;;;14.57;4.82;;;16.70;99.90;;;;;;5025068;28;20099;-72
2023/10/02 03:11:34;;;;;;;11.52;4.47;;;16.70;99.90;;;;;;5024096;28;20034;-72
2023/10/02 03:14:16;;;;;;;13.68;5.05;;;16.70;99.90;;;;;;5003823;28;20037;-72
2023/10/02 03:16:45;;;;;;;15.43;5.13;;;16.80;99.90;;;;;;5020438;28;20124;-72
2023/10/02 03:19:13;;;;;;;13.70;5.13;;;16.70;99.90;;;;;;5007602;28;20052;-72
2023/10/02 03:21:42;;;;;;;15.68;4.72;;;16.70;99.90;;;;;;5025843;28;20049;-72
2023/10/02 03:24:08;;;;;;;14.05;4.45;;;16.70;99.90;;;;;;5025969;28;20652;-72
2023/10/02 03:29:00;;;;;;;14.63;4.78;;;16.70;99.90;;;;;;5022516;28;20187;-72
2023/10/02 03:31:36;;;;;;;12.43;4.78;;;16.70;99.90;;;;;;5021894;28;20049;-72
2023/10/02 03:34:24;;;;;;;14.85;5.68;;;16.70;99.90;;;;;;5006690;28;20079;-73
2023/10/02 03:39:52;;;;;;;12.35;4.25;;;16.70;99.90;;;;;;5023413;28;20459;-73
2023/10/02 03:42:25;;;;;;;10.93;4.57;;;16.70;99.90;;;;;;5022107;28;20132;-73
2023/10/02 03:44:56;;;;;;;15.50;4.93;;;16.70;99.90;;;;;;5022609;28;20064;-72
2023/10/02 03:47:22;;;;;;;13.32;4.80;;;16.70;99.90;;;;;;5024998;28;20107;-73
2023/10/02 03:49:49;;;;;;;11.68;5.13;;;16.70;99.90;;;;;;5023114;28;20064;-73
2023/10/02 03:52:16;;;;;;;11.57;4.30;;;16.60;99.90;;;;;;5024622;28;20471;-73
2023/10/02 03:54:43;;;;;;;15.85;5.10;;;16.60;99.90;;;;;;5022767;28;20037;-72
2023/10/02 03:59:54;;;;;;;12.00;5.00;;;16.70;99.90;;;;;;5024525;28;20041;-72
2023/10/02 04:02:25;;;;;;;17.50;4.97;;;16.60;99.90;;;;;;5003564;28;20150;-72
2023/10/02 04:04:51;;;;;;;13.15;5.07;;;16.60;99.90;;;;;;5022951;28;20039;-73
2023/10/02 04:07:20;;;;;;;13.60;5.22;;;16.60;99.90;;;;;;5023633;28;20048;-72
2023/10/02 04:09:55;;;;;;;15.77;5.30;;;16.50;99.90;;;;;;5044314;28;20121;-73
2023/10/02 04:12:22;;;;;;;15.40;4.97;;;16.50;99.90;;;;;;5025919;28;20045;-73
2023/10/02 04:14:48;;;;;;;15.57;5.60;;;16.50;99.90;;;;;;5025720;28;20621;-72
2023/10/02 04:17:20;;;;;;;11.68;4.63;;;16.40;99.90;;;;;;5024259;28;20045;-73
2023/10/02 04:19:51;;;;;;;15.10;4.78;;;16.50;99.90;;;;;;5027659;28;20048;-73
2023/10/02 04:22:27;;;;;;;13.85;4.90;;;16.50;99.90;;;;;;5024130;28;20519;-73
2023/10/02 04:24:58;;;;;;;12.52;4.25;;;16.40;99.90;;;;;;5021435;28;20091;-73
2023/10/02 04:27:25;;;;;;;15.18;5.22;;;16.50;99.90;;;;;;5022448;28;20767;-73
2023/10/02 04:32:36;;;;;;;13.05;5.28;;;16.40;99.90;;;;;;5019722;28;20041;-73
2023/10/02 04:35:03;;;;;;;12.57;4.68;;;16.40;99.90;;;;;;5021729;28;20152;-73
2023/10/02 04:37:36;;;;;;;16.02;5.30;;;16.40;99.90;;;;;;5022774;28;20116;-72
2023/10/02 04:40:15;;;;;;;15.48;5.53;;;16.40;99.90;;;;;;5036482;28;20049;-72
2023/10/02 04:43:09;;;;;;;15.52;6.28;;;16.40;99.90;;;;;;5022528;28;20057;-73
2023/10/02 04:45:36;;;;;;;16.23;5.78;;;16.30;99.90;;;;;;5023622;28;20414;-72
2023/10/02 04:48:07;;;;;;;15.20;5.40;;;16.30;99.90;;;;;;5023555;28;20128;-73
2023/10/02 04:50:36;;;;;;;12.70;5.60;;;16.30;99.90;;;;;;5022617;28;20106;-72
2023/10/02 04:53:19;;;;;;;11.15;4.50;;;16.30;99.90;;;;;;5005422;28;20540;-72
2023/10/02 04:55:48;;;;;;;13.45;5.22;;;16.30;99.90;;;;;;5038217;28;20034;-73
2023/10/02 04:58:20;;;;;;;14.23;5.00;;;16.30;99.90;;;;;;5023151;28;20140;-73
2023/10/02 05:03:28;;;;;;;17.50;5.40;;;16.20;99.90;;;;;;5026103;28;20037;-73
2023/10/02 05:05:55;;;;;;;18.15;5.22;;;16.20;99.90;;;;;;5010410;28;20052;-72
2023/10/02 05:08:33;;;;;;;19.10;5.88;;;16.20;99.90;;;;;;5044684;28;20036;-72
2023/10/02 05:11:11;;;;;;;15.65;4.85;;;16.10;99.90;;;;;;5009784;28;20037;-72
2023/10/02 05:13:59;;;;;;;13.82;5.47;;;16.20;99.90;;;;;;5023842;28;20034;-72
2023/10/02 05:16:38;;;;;;;14.48;5.45;;;16.20;99.90;;;;;;5029899;28;20056;-72
2023/10/02 05:19:09;;;;;;;13.68;4.68;;;16.10;99.90;;;;;;5024836;28;20041;-72
2023/10/02 05:21:39;;;;;;;16.17;5.47;;;16.10;99.90;;;;;;5024833;28;20430;-72
2023/10/02 05:24:13;;;;;;;17.02;5.47;;;16.20;99.90;;;;;;5024294;28;20083;-72
2023/10/02 05:26:41;;;;;;;12.18;4.78;;;16.10;99.90;;;;;;5022672;28;20042;-72
2023/10/02 05:29:08;;;;;;;12.40;4.30;;;16.10;99.90;;;;;;5009723;28;20041;-72
2023/10/02 05:31:35;;;;;;;14.77;5.00;;;16.10;99.90;;;;;;5025809;28;20046;-72
2023/10/02 05:34:24;;;;;;;16.48;4.88;;;16.10;99.90;;;;;;5006138;28;20120;-72
2023/10/02 05:39:41;;;;;;;14.48;5.40;;;16.00;99.90;;;;;;5025091;28;20075;-72
2023/10/02 05:42:13;;;;;;;15.90;5.28;;;16.00;99.90;;;;;;5042389;28;20120;-72
2023/10/02 05:44:39;;;;;;;16.98;4.78;;;16.00;99.90;;;;;;5027356;28;20701;-72
2023/10/02 05:47:05;;;;;;;12.02;4.57;;;16.00;99.90;;;;;;5031952;28;20072;-72
2023/10/02 05:49:32;;;;;;;18.00;5.40;;;16.00;99.90;;;;;;5030808;28;20076;-72
2023/10/02 05:52:00;;;;;;;13.57;4.60;;;16.00;99.90;;;;;;5029302;28;20045;-72
2023/10/02 05:54:29;;;;;;;15.80;4.72;;;16.00;99.90;;;;;;5023980;28;20057;-72
2023/10/02 05:57:08;;;;;;;16.58;5.47;;;16.00;99.90;;;;;;5024111;28;20037;-72
2023/10/02 05:59:47;;;;;;;16.02;5.15;;;16.00;99.90;;;;;;5027448;28;20049;-72
2023/10/02 06:02:21;;;;;;;15.50;5.80;;;15.90;99.90;;;;;;5024264;28;20208;-72
2023/10/02 06:04:48;;;;;;;15.82;5.28;;;16.00;99.90;;;;;;5025811;28;20065;-72
2023/10/02 06:10:08;;;;;;;13.75;5.03;;;15.90;99.90;;;;;;5023624;28;20050;-72
2023/10/02 06:12:34;;;;;;;12.48;4.78;;;15.90;99.90;;;;;;5026074;28;20064;-72
2023/10/02 06:15:15;;;;;;;13.45;5.28;;;15.90;99.90;;;;;;5029406;28;20037;-72
2023/10/02 06:17:43;;;;;;;13.52;5.05;;;15.90;99.90;;;;;;5026127;28;20033;-73
2023/10/02 06:20:17;;;;;;;15.30;5.10;;;15.90;99.90;;;;;;5027907;28;20083;-72
2023/10/02 06:22:47;;;;;;;12.23;4.80;;;15.90;99.90;;;;;;5023658;28;20073;-72
2023/10/02 06:25:18;;;;;;;17.48;5.10;;;15.90;99.90;;;;;;5022723;28;20083;-72
2023/10/02 06:27:47;;;;;;;14.43;5.13;;;16.00;99.90;;;;;;5024982;28;20045;-72
2023/10/02 06:30:16;;;;;;;16.58;5.05;;;16.00;99.90;;;;;;5029356;28;20299;-72
2023/10/02 06:32:52;;;;;;;15.38;5.30;;;16.00;99.90;;;;;;5035534;28;20312;-72
2023/10/02 06:35:22;;;;;;;15.85;4.88;;;16.00;99.90;;;;;;4997049;28;20072;-72
2023/10/02 06:37:52;;;;;;;15.90;5.75;;;16.10;99.90;;;;;;5024991;28;20124;-72
2023/10/02 06:40:23;;;;;;;15.25;5.40;;;16.10;99.90;;;;;;5011609;28;20033;-72
2023/10/02 06:42:58;;;;;;;18.70;5.13;;;16.10;99.90;;;;;;5009565;28;20029;-72
2023/10/02 06:45:26;;;;;;;14.65;5.07;;;16.10;99.90;;;;;;5011464;28;20117;-72
2023/10/02 06:47:56;;;;;;;14.40;4.85;;;16.10;99.90;;;;;;5025965;28;20057;-73
2023/10/02 06:50:29;;;;;;;16.17;5.50;;;16.20;99.90;;;;;;5021789;28;20459;-72
2023/10/02 06:52:54;;;;;;;14.85;5.03;;;16.20;99.90;;;;;;5026092;28;20041;-72
2023/10/02 06:55:21;;;;;;;13.60;4.63;;;16.20;99.90;;;;;;5028284;28;20091;-73
2023/10/02 06:57:51;;;;;;;13.68;5.13;;;16.20;99.90;;;;;;5027504;28;20113;-72
2023/10/02 07:00:19;;;;;;;12.48;5.28;;;16.20;99.90;;;;;;5027094;28;20571;-72
2023/10/02 07:02:56;;;;;;;13.25;5.20;;;16.20;99.90;;;;;;5027377;28;20531;-72
2023/10/02 07:05:39;;;;;;;12.70;5.07;;;16.20;99.90;;;;;;5027491;28;20056;-75
2023/10/02 07:08:18;;;;;;;16.38;4.95;;;16.20;99.90;;;;;;5010278;28;20115;-72
2023/10/02 07:10:44;;;;;;;12.05;4.63;;;16.20;99.90;;;;;;5025526;28;20388;-73
2023/10/02 07:13:20;;;;;;;12.82;5.25;;;16.30;99.90;;;;;;5027033;28;20095;-73
2023/10/02 07:15:55;;;;;;;13.23;5.43;;;16.30;99.90;;;;;;5023627;28;20397;-73
2023/10/02 07:18:37;;;;;;;;;;;16.30;99.90;;;;;;5023966;28;20041;-72
2023/10/02 07:21:09;;;;;;;15.98;4.85;;;16.30;99.90;;;;;;5026206;28;20450;-73
2023/10/02 07:23:38;;;;;;;16.27;5.93;;;16.30;99.90;;;;;;5024440;28;20132;-72
2023/10/02 07:26:15;;;;;;;10.43;4.65;;;16.30;99.90;;;;;;5025972;28;20048;-72
2023/10/02 07:28:50;;;;;;;14.70;5.22;;;16.40;99.90;;;;;;5023233;28;20065;-73
2023/10/02 07:31:20;;;;;;;15.82;5.93;;;16.40;99.90;;;;;;5024931;28;20578;-72
2023/10/02 07:33:45;;;;;;;11.05;4.50;;;16.40;99.90;;;;;;5032662;28;20041;-72
2023/10/02 07:36:15;;;;;;;14.95;4.82;;;16.40;99.90;;;;;;5027620;28;20483;-73
2023/10/02 07:38:46;;;;;;;12.35;4.93;;;16.40;99.90;;;;;;5009604;28;20061;-73
2023/10/02 07:41:25;;;;;;;13.80;5.20;;;16.40;99.90;;;;;;5018987;28;20083;-73
2023/10/02 07:43:55;;;;;;;14.05;5.05;;;16.40;99.90;;;;;;4998544;28;20033;-72
2023/10/02 07:46:21;;;;;;;19.00;5.68;;;16.40;99.90;;;;;;5014559;28;20033;-73
2023/10/02 07:48:57;;;;;;;13.18;6.13;;;16.50;99.90;;;;;;5020916;28;20733;-73
2023/10/02 07:51:30;;;;;;;13.77;5.43;;;16.50;99.90;;;;;;5020742;28;20388;-73
2023/10/02 07:54:12;;;;;;;17.83;5.28;;;16.50;99.90;;;;;;5023001;28;20033;-73
2023/10/02 07:56:41;;;;;;;17.25;5.32;;;16.60;99.90;;;;;;5021092;28;20411;-73
2023/10/02 07:59:07;;;;;;;14.90;5.43;;;16.60;99.90;;;;;;5019799;28;20041;-73
2023/10/02 08:01:33;;;;;;;18.30;6.18;;;16.70;99.90;;;;;;5014504;28;20538;-72
2023/10/02 08:04:01;;;;;;;13.57;5.57;;;16.70;99.90;;;;;;5017569;28;20045;-73
2023/10/02 08:06:33;;;;;;;13.80;5.38;;;16.70;99.90;;;;;;5020368;28;20033;-72
2023/10/02 08:09:35;;;;;;;13.98;6.75;;;16.80;99.90;;;;;;5035537;28;20041;-73
2023/10/02 08:12:01;;;;;;;14.80;5.60;;;16.80;99.90;;;;;;5015166;28;20052;-72
2023/10/02 08:14:40;;;;;;;18.50;5.53;;;16.90;99.90;;;;;;5015336;28;20046;-73
2023/10/02 08:20:19;;;;;;;15.65;5.30;;;16.90;99.90;;;;;;4990120;28;20114;-72
2023/10/02 08:22:45;;;;;;;17.90;6.30;;;17.00;99.90;;;;;;5018953;28;20132;-72
2023/10/02 08:25:14;;;;;;;18.30;6.35;;;17.00;99.90;;;;;;5018928;28;20041;-71
2023/10/02 08:27:45;;;;;;;18.55;6.45;;;17.00;99.90;;;;;;5020596;28;20120;-71
2023/10/02 08:30:27;;;;;;;17.42;5.32;;;17.10;99.90;;;;;;5007067;28;20042;-73
2023/10/02 08:33:05;;;;;;;16.65;5.90;;;17.10;99.90;;;;;;4994121;28;20033;-73
2023/10/02 08:35:33;;;;;;;15.90;6.07;;;17.20;99.90;;;;;;5020899;28;20133;-72
2023/10/02 08:37:59;;;;;;;15.65;6.28;;;17.20;99.90;;;;;;5047761;28;20039;-72
2023/10/02 08:40:26;;;;;;;12.13;5.25;;;17.40;99.90;;;;;;5027516;28;20099;-72
2023/10/02 08:42:53;;;;;;;14.35;5.53;;;17.40;99.90;;;;;;5026926;28;20096;-72
2023/10/02 08:45:23;;;;;;;16.77;6.18;;;17.40;99.90;;;;;;5004638;28;20055;-72
2023/10/02 08:47:49;;;;;;;14.00;5.78;;;17.50;99.90;;;;;;5022891;28;20330;-72
2023/10/02 08:50:18;;;;;;;17.45;6.03;;;17.50;99.90;;;;;;5026882;28;20290;-72
2023/10/02 08:52:50;;;;;;;15.20;5.60;;;17.60;99.90;;;;;;5030665;28;20052;-72
2023/10/02 08:58:27;;;;;;;20.42;6.45;;;17.70;99.90;;;;;;5013119;28;20124;-72
2023/10/02 09:03:42;;;;;;;23.08;6.00;;;17.70;99.90;;;;;;5027759;28;20079;-73
2023/10/02 09:06:31;;;;;;;21.00;6.18;;;17.80;99.90;;;;;;5026399;28;20068;-73
2023/10/02 09:09:21;;;;;;;16.60;5.65;;;17.90;99.90;;;;;;5041780;28;20045;-72
2023/10/02 09:11:52;;;;;;;15.38;6.13;;;17.90;99.90;;;;;;5023868;28;20117;-72
2023/10/02 09:14:23;;;;;;;19.13;5.90;;;18.00;99.90;;;;;;5025211;28;20136;-73
2023/10/02 09:19:49;;;;;;;19.08;7.00;;;18.00;99.90;;;;;;5025840;28;20041;-73
2023/10/02 09:22:16;;;;;;;21.25;5.85;;;18.10;99.90;;;;;;5006154;28;20342;-72
2023/10/02 09:24:57;;;;;;;19.92;6.30;;;18.10;99.90;;;;;;5026568;28;20045;-81
2023/10/02 09:27:27;;;;;;;17.65;5.93;;;18.20;99.90;;;;;;5024514;28;20051;-73
2023/10/02 09:30:21;;;;;;;18.20;6.70;;;18.10;99.90;;;;;;5023735;28;20037;-82
2023/10/02 09:32:53;;;;;;;18.20;7.13;;;18.20;99.90;;;;;;5010467;28;20033;-76
2023/10/02 09:35:32;;;;;;;18.67;6.97;;;18.20;99.90;;;;;;5023368;28;20036;-75
2023/10/02 09:38:04;;;;;;;15.63;5.63;;;18.30;99.90;;;;;;5039404;28;20044;-76
2023/10/02 09:40:53;;;;;;;17.08;6.43;;;18.30;99.90;;;;;;5004598;28;20450;-76
2023/10/02 09:43:23;;;;;;;15.85;6.53;;;18.30;99.90;;;;;;5027300;28;20123;-75
2023/10/02 09:45:53;;;;;;;17.00;6.28;;;18.40;99.90;;;;;;5028040;28;20075;-76
2023/10/02 09:49:01;;;;;;;18.13;6.32;;;18.40;99.90;;;;;;5005578;28;20056;-75
2023/10/02 09:52:15;;;;;;;16.30;6.75;;;18.50;99.90;;;;;;5022069;28;20044;-74
2023/10/02 09:54:51;;;;;;;20.95;6.70;;;18.60;99.90;;;;;;5004664;28;20037;-74
2023/10/02 09:57:24;;;;;;;20.67;7.38;;;18.60;99.90;;;;;;5023502;28;20033;-74
2023/10/02 09:59:54;;;;;;;19.73;7.07;;;18.50;99.90;;;;;;5015511;28;20052;-74
2023/10/02 10:05:45;;;;;;;17.95;7.10;;;18.60;99.90;;;;;;5021620;28;20061;-74
2023/10/02 10:13:36;;;;;;;22.02;6.88;;;18.60;99.90;;;;;;5017458;28;20107;-74
2023/10/02 10:16:21;;;;;;;20.83;7.15;;;18.50;99.90;;;;;;5007538;28;20087;-74
2023/10/02 10:21:56;;;;;;;20.02;6.65;;;18.60;99.90;;;;;;5016806;28;20487;-74
2023/10/02 10:24:55;;;;;;;21.67;6.82;;;18.60;99.90;;;;;;5024389;28;20048;-74
2023/10/02 10:27:41;;;;;;;18.15;6.65;;;18.60;99.90;;;;;;5023033;28;20112;-74
2023/10/02 10:30:24;;;;;;;19.40;6.45;;;18.60;99.90;;;;;;5023437;28;20506;-74
2023/10/02 10:35:35;;;;;;;19.58;7.38;;;18.70;99.90;;;;;;5024301;28;20041;-74
2023/10/02 10:38:36;;;;;;;23.90;7.43;;;18.70;99.90;;;;;;5026874;28;20044;-74
2023/10/02 10:41:06;;;;;;;23.35;8.27;;;18.70;99.90;;;;;;5020434;28;20045;-74
2023/10/02 10:43:43;;;;;;;22.05;6.78;;;18.70;99.90;;;;;;5002503;28;20482;-74
2023/10/02 10:46:47;;;;;;;23.58;7.32;;;18.70;99.90;;;;;;5018616;28;20084;-74
2023/10/02 10:49:19;;;;;;;21.67;7.72;;;18.70;99.90;;;;;;5023902;28;20049;-74
2023/10/02 10:51:52;;;;;;;17.77;7.05;;;18.70;99.90;;;;;;5019730;28;20045;-74
2023/10/02 10:54:27;;;;;;;23.17;8.45;;;18.80;99.90;;;;;;5023019;28;20112;-74
2023/10/02 10:57:19;;;;;;;23.08;8.23;;;18.90;99.90;;;;;;4997375;28;20038;-74
2023/10/02 10:59:45;;;;;;;24.25;8.18;;;18.90;99.90;;;;;;5020362;28;20292;-74
2023/10/02 11:02:17;;;;;;;21.83;8.30;;;19.00;99.90;;;;;;5030967;28;20449;-74
2023/10/02 11:04:47;;;;;;;18.73;7.43;;;19.00;99.90;;;;;;5024458;28;20053;-74
2023/10/02 11:07:23;;;;;;;19.73;7.68;;;19.00;99.90;;;;;;5024473;28;20131;-74
2023/10/02 11:10:14;;;;;;;22.17;8.32;;;19.10;99.90;;;;;;5005239;28;20041;-74
2023/10/02 11:12:40;;;;;;;26.00;8.25;;;19.00;99.90;;;;;;5024376;28;20310;-75
2023/10/02 11:15:28;;;;;;;22.40;7.72;;;19.10;99.90;;;;;;5007768;28;20471;-74
2023/10/02 11:18:18;;;;;;;21.63;8.38;;;19.10;99.90;;;;;;5023125;28;20033;-74
2023/10/02 11:20:49;;;;;;;21.75;8.10;;;19.10;99.90;;;;;;5021426;28;20056;-74
2023/10/02 11:23:29;;;;;;;22.98;7.60;;;19.10;99.90;;;;;;5038603;28;20045;-74
2023/10/02 11:25:55;;;;;;;24.92;8.80;;;19.00;99.90;;;;;;5023921;28;20091;-74
2023/10/02 11:28:32;;;;;;;20.67;8.52;;;19.10;99.90;;;;;;5023593;28;20049;-74
2023/10/02 11:31:45;;;;;;;21.90;8.30;;;19.10;99.90;;;;;;5023519;28;20042;-74
2023/10/02 11:34:08;;;;;;;25.33;8.57;;;19.20;99.90;;;;;;5024311;28;20044;-74
2023/10/02 11:36:39;;;;;;;28.95;9.18;;;19.20;99.90;;;;;;5024860;28;20034;-74
2023/10/02 11:39:09;;;;;;;26.73;9.75;;;19.20;99.90;;;;;;4989688;28;20053;-74
2023/10/02 11:41:39;;;;;;;23.30;9.30;;;19.30;99.90;;;;;;5006264;28;20045;-74
2023/10/02 11:44:06;;;;;;;28.83;8.73;;;19.30;99.90;;;;;;5023827;28;20112;-74
2023/10/02 11:46:32;;;;;;;18.95;8.73;;;19.30;99.90;;;;;;5006903;28;20116;-74
2023/10/02 11:48:58;;;;;;;21.10;8.48;;;19.40;99.90;;;;;;5003700;28;20050;-74
2023/10/02 11:51:28;;;;;;;17.73;8.93;;;19.40;99.90;;;;;;5023107;28;20044;-73
2023/10/02 11:53:57;;;;;;;17.90;7.72;;;19.40;99.90;;;;;;5005539;28;20037;-74
2023/10/02 11:56:24;;;;;;;24.05;9.52;;;19.40;99.90;;;;;;5024277;28;20033;-74
2023/10/02 11:58:52;;;;;;;19.75;8.70;;;19.50;99.90;;;;;;5023900;28;20073;-74
2023/10/02 12:01:19;;;;;;;22.92;9.02;;;19.50;99.90;;;;;;5024413;28;20029;-74
2023/10/02 12:03:45;;;;;;;19.75;8.02;;;19.50;99.90;;;;;;5024138;28;20314;-74
2023/10/02 12:06:16;;;;;;;21.35;8.40;;;19.50;99.90;;;;;;5026583;28;20091;-74
2023/10/02 12:08:43;;;;;;;21.73;7.80;;;19.50;99.90;;;;;;5023973;28;20026;-74
2023/10/02 12:11:10;;;;;;;21.77;8.82;;;19.60;99.90;;;;;;5024914;28;20041;-74
2023/10/02 12:13:35;;;;;;;23.30;9.40;;;19.60;99.90;;;;;;5023749;28;20442;-74
2023/10/02 12:16:02;;;;;;;24.42;9.25;;;19.60;99.90;;;;;;5023681;28;20091;-74
2023/10/02 12:18:32;;;;;;;23.33;9.82;;;19.60;99.90;;;;;;5022406;28;20091;-74
2023/10/02 12:20:58;;;;;;;21.45;9.07;;;19.60;99.90;;;;;;5006002;28;20088;-74
2023/10/02 12:23:23;;;;;;;16.10;7.53;;;19.60;99.90;;;;;;5025252;28;20042;-75
2023/10/02 12:25:49;;;;;;;21.17;8.55;;;19.60;99.90;;;;;;5026437;28;20093;-74
2023/10/02 12:28:15;;;;;;;22.73;8.40;;;19.60;99.90;;;;;;5023373;28;20077;-74
2023/10/02 12:30:41;;;;;;;19.15;7.47;;;19.60;99.90;;;;;;5021155;28;20037;-74
2023/10/02 12:33:06;;;;;;;24.38;7.70;;;19.60;99.90;;;;;;5006029;28;20025;-74
2023/10/02 12:35:39;;;;;;;16.60;6.68;;;19.60;99.90;;;;;;5019679;28;20038;-74
2023/10/02 12:38:07;;;;;;;19.02;7.35;;;19.60;99.90;;;;;;5025430;28;20442;-74
2023/10/02 12:40:33;;;;;;;19.85;7.95;;;19.60;99.90;;;;;;5022089;28;20080;-74
2023/10/02 12:43:00;;;;;;;15.98;6.85;;;19.60;99.90;;;;;;5022061;28;20180;-74
2023/10/02 12:45:30;;;;;;;15.23;7.15;;;19.60;99.90;;;;;;5020236;28;20037;-74
2023/10/02 12:47:55;;;;;;;21.00;7.50;;;19.70;99.90;;;;;;5022052;28;20045;-74
2023/10/02 12:50:21;;;;;;;20.65;7.97;;;19.60;99.90;;;;;;5020907;28;20037;-74
2023/10/02 12:52:46;;;;;;;17.00;7.40;;;19.60;99.90;;;;;;5019612;28;20026;-74
2023/10/02 12:55:13;;;;;;;17.30;7.68;;;19.60;99.90;;;;;;5016246;28;20053;-74
2023/10/02 12:57:39;;;;;;;19.00;7.45;;;19.70;99.90;;;;;;5022218;28;20446;-74
2023/10/02 13:00:16;;;;;;;19.77;7.10;;;19.70;99.90;;;;;;5005084;28;20049;-74
2023/10/02 13:02:42;;;;;;;23.02;8.50;;;19.70;99.90;;;;;;5037318;28;20044;-74
2023/10/02 13:05:09;;;;;;;19.00;7.90;;;19.70;99.90;;;;;;5024818;28;20034;-74
2023/10/02 13:07:35;;;;;;;16.70;7.30;;;19.80;99.90;;;;;;5026091;28;20120;-74
2023/10/02 13:10:01;;;;;;;22.63;7.25;;;19.70;99.90;;;;;;5022769;28;20124;-74
2023/10/02 13:12:26;;;;;;;17.23;7.25;;;19.70;99.90;;;;;;5026268;28;20044;-74
2023/10/02 13:14:54;;;;;;;19.35;6.75;;;19.80;99.90;;;;;;5040756;28;20052;-74
2023/10/02 13:17:20;;;;;;;16.80;7.40;;;19.80;99.90;;;;;;5006896;28;20475;-74
2023/10/02 13:19:45;;;;;;;16.50;6.70;;;19.80;99.90;;;;;;5021892;28;20063;-74
2023/10/02 13:22:11;;;;;;;16.40;7.30;;;19.80;99.90;;;;;;5019307;28;20049;-74
2023/10/02 13:24:37;;;;;;;16.92;6.05;;;19.80;99.90;;;;;;5025914;28;20083;-74
2023/10/02 13:27:02;;;;;;;13.70;5.90;;;19.80;99.90;;;;;;5025358;28;20037;-74
2023/10/02 13:29:28;;;;;;;15.40;5.78;;;19.90;99.90;;;;;;5027375;28;20501;-74
2023/10/02 13:31:53;;;;;;;17.15;6.28;;;19.90;99.90;;;;;;5026404;28;20543;-74
2023/10/02 13:34:20;;;;;;;14.23;5.70;;;19.90;99.90;;;;;;5008753;28;22124;-74
2023/10/02 13:36:46;;;;;;;10.98;4.70;;;19.90;99.90;;;;;;5025708;28;20045;-74
2023/10/02 13:39:16;;;;;;;11.23;4.25;;;20.00;99.90;;;;;;5042856;28;20091;-74
2023/10/02 13:41:42;;;;;;;12.48;4.45;;;20.00;99.90;;;;;;5007365;28;20041;-74
2023/10/02 13:44:07;;;;;;;12.60;4.38;;;20.00;99.90;;;;;;5025435;28;20045;-74
2023/10/02 13:46:38;;;;;;;11.07;4.32;;;20.00;99.90;;;;;;5043619;28;20645;-74
2023/10/02 13:49:05;;;;;;;12.35;4.30;;;20.00;99.90;;;;;;5006432;28;20041;-74
2023/10/02 13:51:31;;;;;;;11.85;4.28;;;20.10;99.90;;;;;;5028093;28;20044;-74